aviador You're here:

YBMA Decoded Metar

MOUNT ISA in AUSTRALIA
Report Time2018-05-28 04:30:00
UTC Time2018-05-28 04:51:20
Flight Rules vfr VFR
Wind090° at 07 kt
W.Decomp.*RWY 16: 1.8 kt HW 6.8 kt LCW
W.Rank090° ranks 9
Current wind is below 090° avg. (8.0)
Visibility9999 m
Phenomena:N/A
Clouds:N/A
Expected CloudBase > 7,200 ft AGL from Temp-Dew spread
CeilingNone
Temp28°C (ISA +15)
Dew Point10°C (32% RH)
Heat Index27.2°C
AAT25.5°C
QNH1015 hPa
Density Alt2,982 ft
Elevation1,129 ft
Report Wrong Elevation
Raw Report
YBMA 280430Z AUTO 09007KT 050V140 9999 // NCD 28/10 Q1015
RF00.0/000.0=

Extra information for YBMA:More info

Metar Taf Metar & Taf Last 4 Metars F.Rules Stats Wind Profile Meteogram Temp Stats Airport Information Weather charts Add Link Nearby VenuesMetar ALERT Operation Metar Decoded Social comments